Time;durP1;ratioP1;P1;durP2;ratioP2;P2;SDS_P1;SDS_P2;PMS_P1;PMS_P2;Temp;Humidity;BMP_temperature;BMP_pressure;BME280_temperature;BME280_humidity;BME280_pressure;Samples;Min_cycle;Max_cycle;Signal;HPM_P1;HPM_P2
2021/01/29 09:07:23;;;;;;;0.60;0.60;;;9.40;99.90;;;;;;6138588;23;20264;-84
2021/01/29 09:10:40;;;;;;;0.50;0.50;;;9.40;99.90;;;;;;6019010;23;20190;-83
2021/01/29 09:14:11;;;;;;;;;;;;;;;;;;;;;
2021/01/29 09:17:25;;;;;;;;;;;;;;;;;;;;;
2021/01/29 10:34:44;;;;;;;1.98;1.05;;;9.70;99.90;;;;;;6042052;23;20565;-85
2021/01/29 11:02:38;;;;;;;1.60;1.17;;;10.50;99.90;;;;;;5738512;24;20256;-84
2021/01/29 11:05:52;;;;;;;;;;;;;;;;;;;;;
2021/01/29 11:29:11;;;;;;;1.80;1.27;;;9.90;99.90;;;;;;6099456;23;20224;-85
2021/01/29 11:31:53;;;;;;;0.77;0.63;;;9.80;99.90;;;;;;6099395;23;20826;-83
2021/01/29 11:34:30;;;;;;;4.63;1.70;;;9.70;99.90;;;;;;6100691;23;20169;-83
2021/01/29 11:37:20;;;;;;;;;;;;;;;;;;;;;
2021/01/29 11:39:55;;;;;;;0.80;0.80;;;9.60;99.90;;;;;;6092889;23;20255;-83
2021/01/29 11:42:41;;;;;;;7.78;1.42;;;9.70;99.90;;;;;;6100253;23;20169;-83
2021/01/29 11:45:18;;;;;;;1.40;0.82;;;10.00;99.90;;;;;;6100259;23;20695;-83
2021/01/29 11:47:59;;;;;;;1.77;0.90;;;10.30;99.90;;;;;;6100499;23;20184;-83
2021/01/29 11:50:38;;;;;;;2.35;1.10;;;10.60;99.90;;;;;;6101566;23;20171;-83
2021/01/29 11:53:10;;;;;;;2.42;1.02;;;10.70;99.90;;;;;;6100449;23;20170;-83
2021/01/29 11:55:44;;;;;;;1.05;1.00;;;10.60;99.90;;;;;;6101346;23;20201;-82
2021/01/29 11:58:16;;;;;;;3.58;1.48;;;10.40;99.90;;;;;;6109858;23;20156;-85
2021/01/29 12:00:48;;;;;;;3.53;1.83;;;10.30;99.90;;;;;;6116604;23;20166;-84
2021/01/29 12:03:26;;;;;;;1.65;1.17;;;10.50;99.90;;;;;;6123741;23;20172;-85
2021/01/29 12:05:58;;;;;;;2.70;1.20;;;10.40;99.90;;;;;;6100087;23;20211;-85
2021/01/29 12:08:44;;;;;;;0.98;0.68;;;10.20;99.90;;;;;;6100623;23;20193;-85
2021/01/29 12:11:20;;;;;;;1.77;1.35;;;9.90;99.90;;;;;;6099738;23;20168;-85
2021/01/29 12:13:57;;;;;;;0.85;0.70;;;9.90;99.90;;;;;;6098797;23;20197;-85
2021/01/29 12:16:28;;;;;;;4.40;1.77;;;10.00;99.90;;;;;;6100801;23;20205;-85
2021/01/29 12:18:56;;;;;;;3.05;1.35;;;10.00;99.90;;;;;;6100090;23;20609;-85
2021/01/29 12:21:35;;;;;;;0.73;0.73;;;10.00;99.90;;;;;;6100100;23;20263;-85
2021/01/29 12:24:14;;;;;;;4.70;1.38;;;10.10;99.90;;;;;;6099308;23;20206;-85
2021/01/29 12:26:46;;;;;;;2.45;1.23;;;10.10;99.90;;;;;;6098911;23;20240;-85
2021/01/29 12:29:26;;;;;;;0.43;0.43;;;10.20;99.90;;;;;;6099846;23;20216;-85
2021/01/29 12:32:17;;;;;;;1.83;1.52;;;10.10;99.90;;;;;;6099892;23;20170;-84
2021/01/29 12:34:48;;;;;;;3.50;1.15;;;10.10;99.90;;;;;;6099863;23;20174;-84
2021/01/29 12:37:21;;;;;;;2.40;1.02;;;9.90;99.90;;;;;;6100665;23;20201;-84
2021/01/29 12:39:52;;;;;;;4.72;1.40;;;9.80;99.90;;;;;;6100133;23;20512;-85
2021/01/29 12:42:23;;;;;;;2.97;1.85;;;9.90;99.90;;;;;;6100762;23;20177;-85
2021/01/29 12:44:55;;;;;;;2.45;1.23;;;9.90;99.90;;;;;;6104015;23;20633;-84
2021/01/29 12:47:37;;;;;;;0.90;0.90;;;9.90;99.90;;;;;;6100236;23;20208;-84
2021/01/29 12:50:30;;;;;;;2.97;2.35;;;10.00;99.90;;;;;;6099385;23;20508;-85
2021/01/29 12:53:03;;;;;;;4.22;1.40;;;10.10;99.90;;;;;;6098027;23;20193;-85
2021/01/29 12:55:37;;;;;;;3.17;1.23;;;10.30;99.90;;;;;;6098396;23;20224;-85
2021/01/29 12:58:06;;;;;;;1.33;1.08;;;10.30;99.90;;;;;;6101101;23;20161;-85
2021/01/29 13:00:38;;;;;;;2.85;1.20;;;10.40;99.90;;;;;;6100436;23;20181;-85
2021/01/29 13:03:20;;;;;;;1.15;1.00;;;10.40;99.90;;;;;;6099345;23;20194;-85
2021/01/29 13:06:05;;;;;;;0.80;0.60;;;10.60;99.90;;;;;;6098921;23;20529;-85
2021/01/29 13:09:02;;;;;;;1.23;0.50;;;10.50;99.90;;;;;;6099172;23;20192;-85
2021/01/29 13:11:38;;;;;;;1.45;0.88;;;10.40;99.90;;;;;;6085451;23;20191;-85
2021/01/29 13:14:15;;;;;;;2.50;0.80;;;10.30;99.90;;;;;;6100425;23;20169;-85
2021/01/29 13:17:03;;;;;;;0.47;0.40;;;10.00;99.90;;;;;;6099671;23;20205;-85
2021/01/29 13:19:34;;;;;;;0.50;0.50;;;10.00;99.90;;;;;;6099970;23;20173;-85
2021/01/29 13:22:25;;;;;;;0.63;0.63;;;9.80;99.90;;;;;;6099371;23;20169;-85
2021/01/29 13:25:05;;;;;;;0.50;0.40;;;9.70;99.90;;;;;;6099327;23;20188;-85
2021/01/29 13:27:34;;;;;;;1.15;0.40;;;9.60;99.90;;;;;;6098339;23;20207;-85
2021/01/29 13:30:17;;;;;;;0.50;0.40;;;9.70;99.90;;;;;;6099601;23;20593;-85
2021/01/29 13:32:44;;;;;;;3.90;0.57;;;9.70;99.90;;;;;;6104535;23;20169;-85
2021/01/29 13:35:14;;;;;;;0.30;0.30;;;10.00;99.90;;;;;;6097219;23;20177;-85
2021/01/29 13:37:41;;;;;;;3.08;0.60;;;10.20;99.90;;;;;;6099008;23;20239;-85
2021/01/29 13:40:12;;;;;;;0.40;0.40;;;10.50;99.90;;;;;;6097168;23;20192;-85
2021/01/29 13:42:41;;;;;;;0.40;0.40;;;10.90;99.90;;;;;;6097465;23;20246;-85
2021/01/29 13:45:12;;;;;;;0.52;0.50;;;11.10;99.90;;;;;;6096407;23;20933;-85
2021/01/29 13:47:41;;;;;;;0.68;0.68;;;11.20;99.90;;;;;;6097006;23;20205;-85
2021/01/29 13:50:20;;;;;;;3.42;0.60;;;11.00;99.90;;;;;;6100231;23;20200;-85
2021/01/29 13:52:52;;;;;;;0.40;0.40;;;11.10;99.90;;;;;;6104927;23;20285;-85
2021/01/29 13:55:26;;;;;;;1.10;0.43;;;11.10;99.90;;;;;;6104749;23;20194;-85
2021/01/29 13:57:57;;;;;;;2.28;0.60;;;11.10;99.90;;;;;;6103955;23;20823;-85
2021/01/29 14:00:27;;;;;;;0.95;0.60;;;11.10;99.90;;;;;;6099963;23;20607;-85
2021/01/29 14:03:00;;;;;;;0.50;0.50;;;11.00;99.90;;;;;;6098913;23;20248;-85
2021/01/29 14:05:29;;;;;;;1.25;0.40;;;11.30;99.90;;;;;;6097961;23;20513;-85
2021/01/29 14:08:00;;;;;;;0.77;0.77;;;11.50;99.90;;;;;;6097546;23;20187;-85
2021/01/29 14:10:30;;;;;;;0.57;0.40;;;11.50;99.90;;;;;;6096493;23;20244;-85
2021/01/29 14:13:15;;;;;;;1.30;0.60;;;11.60;99.90;;;;;;6097699;23;20418;-85
2021/01/29 14:15:53;;;;;;;2.50;1.20;;;11.40;99.90;;;;;;6097028;23;20406;-85
2021/01/29 14:18:33;;;;;;;0.60;0.57;;;11.40;99.90;;;;;;6074708;23;20179;-85
2021/01/29 14:21:08;;;;;;;1.10;0.55;;;11.40;99.90;;;;;;6099211;23;20174;-85
2021/01/29 14:23:42;;;;;;;0.70;0.70;;;11.90;99.90;;;;;;6097111;23;20189;-85
2021/01/29 14:26:16;;;;;;;0.90;0.90;;;12.40;99.90;;;;;;6096983;23;20485;-85
2021/01/29 14:28:52;;;;;;;0.50;0.50;;;12.50;99.90;;;;;;6097269;23;20494;-85
2021/01/29 14:31:22;;;;;;;2.10;0.67;;;12.40;99.90;;;;;;6097056;23;20397;-85
2021/01/29 14:34:22;;;;;;;3.20;0.80;;;12.50;99.90;;;;;;6096957;23;20407;-85
2021/01/29 14:36:59;;;;;;;0.60;0.60;;;12.60;99.90;;;;;;6096983;23;20744;-86
2021/01/29 14:39:56;;;;;;;0.80;0.60;;;13.30;99.90;;;;;;6096034;23;20432;-86
2021/01/29 14:42:40;;;;;;;0.67;0.53;;;13.90;98.40;;;;;;6095934;23;20416;-86
2021/01/29 14:45:21;;;;;;;1.17;0.90;;;14.20;97.50;;;;;;6096348;23;20432;-85
2021/01/29 14:48:10;;;;;;;0.60;0.60;;;14.00;96.90;;;;;;6096449;23;20432;-86
2021/01/29 14:50:47;;;;;;;1.60;0.57;;;13.70;96.90;;;;;;6096867;23;20400;-86
2021/01/29 14:53:26;;;;;;;0.97;0.60;;;13.00;97.60;;;;;;6095919;23;20404;-86
2021/01/29 14:55:57;;;;;;;2.13;0.63;;;12.60;98.50;;;;;;6095889;23;20448;-86
2021/01/29 14:58:29;;;;;;;0.80;0.80;;;12.30;99.50;;;;;;6095884;23;20436;-86
2021/01/29 15:01:00;;;;;;;0.60;0.60;;;12.00;99.90;;;;;;6096233;23;20399;-85
2021/01/29 15:03:30;;;;;;;0.40;0.38;;;11.50;99.90;;;;;;6095594;23;20174;-86
2021/01/29 15:05:59;;;;;;;0.85;0.55;;;11.10;99.90;;;;;;6100201;23;20210;-86
2021/01/29 15:08:31;;;;;;;0.50;0.50;;;10.70;99.90;;;;;;6096783;23;20183;-86
2021/01/29 15:11:00;;;;;;;0.60;0.60;;;10.00;99.90;;;;;;6097847;23;20165;-86
2021/01/29 15:13:42;;;;;;;0.70;0.70;;;9.80;99.90;;;;;;6095860;23;20196;-85
2021/01/29 15:16:46;;;;;;;0.85;0.50;;;9.50;99.90;;;;;;6096287;23;20197;-85
2021/01/29 15:19:40;;;;;;;1.75;0.60;;;9.10;99.90;;;;;;6096602;23;20493;-85
2021/01/29 15:22:22;;;;;;;1.90;0.90;;;8.50;99.90;;;;;;6085106;23;20184;-85
2021/01/29 15:24:51;;;;;;;0.43;0.40;;;8.40;99.90;;;;;;6096701;23;20231;-85
2021/01/29 15:27:35;;;;;;;1.13;0.85;;;8.40;99.90;;;;;;6097000;23;20200;-85
2021/01/29 15:30:07;;;;;;;3.42;0.73;;;8.30;99.90;;;;;;6096226;23;20172;-85
2021/01/29 15:32:40;;;;;;;0.55;0.30;;;8.20;99.90;;;;;;6096541;23;20165;-85
2021/01/29 15:35:31;;;;;;;0.65;0.65;;;8.20;99.90;;;;;;6096485;23;20169;-85
2021/01/29 15:38:02;;;;;;;0.60;0.47;;;8.10;99.90;;;;;;6096558;23;20189;-85
2021/01/29 15:40:39;;;;;;;0.77;0.50;;;8.10;99.90;;;;;;6097047;23;20564;-85
2021/01/29 15:43:32;;;;;;;2.97;0.68;;;8.00;99.90;;;;;;6096339;23;20497;-86
2021/01/29 15:46:01;;;;;;;0.70;0.70;;;8.00;99.90;;;;;;6098418;23;20220;-85
2021/01/29 15:48:55;;;;;;;1.42;0.73;;;8.10;99.90;;;;;;6096592;23;20648;-85
2021/01/29 15:51:57;;;;;;;1.95;0.77;;;8.10;99.90;;;;;;6099331;23;20175;-85
2021/01/29 15:54:48;;;;;;;1.40;0.65;;;8.10;99.90;;;;;;6106235;23;20179;-85
2021/01/29 15:57:50;;;;;;;0.60;0.60;;;8.10;99.90;;;;;;6100410;23;20213;-87
2021/01/29 16:00:49;;;;;;;1.77;0.65;;;8.10;99.90;;;;;;6117296;23;20191;-88
2021/01/29 16:03:43;;;;;;;0.60;0.50;;;8.00;99.90;;;;;;6124919;23;20169;-89
2021/01/29 16:06:09;;;;;;;0.52;0.50;;;7.90;99.90;;;;;;6109030;23;20207;-87
2021/01/29 16:08:36;;;;;;;0.82;0.82;;;7.70;99.90;;;;;;6099651;23;20165;-87
2021/01/29 16:11:15;;;;;;;1.50;0.65;;;7.70;99.90;;;;;;6098267;23;20180;-86
2021/01/29 16:13:44;;;;;;;2.50;0.57;;;7.60;99.90;;;;;;6098369;23;20503;-86
2021/01/29 16:16:17;;;;;;;1.40;0.45;;;7.50;99.90;;;;;;6098007;23;20260;-86
2021/01/29 16:18:52;;;;;;;1.25;0.40;;;7.20;99.90;;;;;;6098107;23;20200;-87
2021/01/29 16:21:24;;;;;;;0.73;0.50;;;7.10;99.90;;;;;;6096182;23;20188;-85
2021/01/29 16:23:53;;;;;;;0.45;0.40;;;7.00;99.90;;;;;;6103159;23;20188;-85
2021/01/29 16:26:25;;;;;;;1.60;0.60;;;6.80;99.90;;;;;;6101019;23;20541;-85
2021/01/29 16:29:00;;;;;;;0.60;0.40;;;6.70;99.90;;;;;;6106350;23;20190;-84
2021/01/29 16:31:30;;;;;;;0.40;0.40;;;6.70;99.90;;;;;;6106814;23;20168;-85
2021/01/29 16:34:00;;;;;;;1.05;0.70;;;6.70;99.90;;;;;;6105085;23;20664;-85
2021/01/29 16:36:27;;;;;;;1.20;0.80;;;6.60;99.90;;;;;;6105103;23;20208;-84
2021/01/29 16:38:53;;;;;;;2.13;1.00;;;6.60;99.90;;;;;;6099735;23;20205;-85
2021/01/29 16:41:26;;;;;;;1.50;0.70;;;6.60;99.90;;;;;;6109523;23;20184;-85
2021/01/29 16:43:54;;;;;;;2.70;0.80;;;6.70;99.90;;;;;;6104576;23;20165;-83
2021/01/29 16:46:33;;;;;;;0.93;0.70;;;6.60;99.90;;;;;;6102367;23;20263;-84
2021/01/29 16:49:24;;;;;;;1.17;1.08;;;6.70;99.90;;;;;;6105487;23;20161;-84
2021/01/29 16:51:53;;;;;;;3.08;1.80;;;6.70;99.90;;;;;;6090535;23;20185;-84
2021/01/29 16:54:24;;;;;;;1.70;0.95;;;6.70;99.90;;;;;;6099887;23;20206;-84
2021/01/29 16:56:51;;;;;;;1.05;1.00;;;6.70;99.90;;;;;;6105442;23;20211;-85
2021/01/29 16:59:24;;;;;;;1.88;1.70;;;6.60;99.90;;;;;;6105411;23;20202;-84
2021/01/29 17:01:51;;;;;;;2.00;1.25;;;6.60;99.90;;;;;;6074439;23;20165;-86
2021/01/29 17:04:19;;;;;;;2.58;1.63;;;6.60;99.90;;;;;;6100788;23;20187;-84
2021/01/29 17:20:23;;;;;;;0.60;0.60;;;6.60;99.90;;;;;;6015020;23;20621;-84
2021/01/29 17:23:15;;;;;;;4.10;1.10;;;6.70;99.90;;;;;;6066979;23;20196;-87
2021/01/29 17:26:03;;;;;;;1.95;1.38;;;6.70;99.90;;;;;;6065678;23;20300;-84
2021/01/29 17:28:34;;;;;;;1.80;1.45;;;6.70;99.90;;;;;;6092176;23;20183;-83
2021/01/29 17:31:07;;;;;;;2.15;1.33;;;6.70;99.90;;;;;;6098802;23;20183;-83
2021/01/29 17:33:36;;;;;;;1.92;1.67;;;6.70;99.90;;;;;;6098074;23;20165;-86
2021/01/29 17:36:14;;;;;;;3.10;1.50;;;6.70;99.90;;;;;;6099017;23;20201;-86
2021/01/29 17:38:41;;;;;;;1.70;1.58;;;6.70;99.90;;;;;;6097725;23;20184;-84
2021/01/29 17:41:28;;;;;;;2.20;1.58;;;6.80;99.90;;;;;;6099321;23;20188;-83
2021/01/29 17:43:57;;;;;;;2.15;1.73;;;6.80;99.90;;;;;;6097442;23;20251;-84
2021/01/29 17:46:26;;;;;;;2.28;1.75;;;6.80;99.90;;;;;;6096331;23;20208;-85
2021/01/29 17:49:07;;;;;;;2.25;1.17;;;6.90;99.90;;;;;;6096380;23;20177;-85
2021/01/29 17:51:37;;;;;;;1.60;1.50;;;7.00;99.90;;;;;;6096654;23;20179;-84
2021/01/29 17:54:23;;;;;;;1.45;1.35;;;7.00;99.90;;;;;;6096727;23;20264;-84
2021/01/29 19:48:11;;;;;;;;;;;;;;;;;;;;;
2021/01/29 20:04:39;;;;;;;1.02;1.02;;;7.00;99.90;;;;;;6023737;23;20182;-85
2021/01/29 20:07:11;;;;;;;2.05;1.25;;;7.10;99.90;;;;;;6051080;23;20271;-85
2021/01/29 20:09:53;;;;;;;1.52;1.42;;;7.10;99.90;;;;;;6137857;23;20182;-85
2021/01/29 20:13:06;;;;;;;1.70;1.60;;;7.10;99.90;;;;;;6140710;23;20515;-85
2021/01/29 20:16:02;;;;;;;1.20;1.10;;;7.10;99.90;;;;;;5934055;23;20215;-85
2021/01/29 20:18:43;;;;;;;2.80;2.55;;;7.00;99.90;;;;;;6103175;23;20282;-85
2021/01/29 20:22:01;;;;;;;2.05;1.00;;;7.00;99.90;;;;;;6142365;23;20172;-85
2021/01/29 20:24:46;;;;;;;0.85;0.77;;;7.10;99.90;;;;;;6140956;23;20184;-85
2021/01/29 20:27:17;;;;;;;1.42;1.20;;;7.10;99.90;;;;;;6140677;23;20210;-85
2021/01/29 20:36:13;;;;;;;0.73;0.73;;;7.00;99.90;;;;;;6133803;23;20184;-85
2021/01/29 20:41:42;;;;;;;0.80;0.80;;;7.10;99.90;;;;;;6088650;23;20646;-85
2021/01/29 20:44:13;;;;;;;2.70;1.02;;;7.10;99.90;;;;;;6141381;23;20551;-84
2021/01/29 20:52:36;;;;;;;1.85;0.70;;;6.90;99.90;;;;;;6151261;23;20179;-85
2021/01/29 20:55:12;;;;;;;0.50;0.50;;;6.70;99.90;;;;;;6173567;23;20175;-85
2021/01/29 20:58:16;;;;;;;0.90;0.90;;;6.70;99.90;;;;;;6173112;23;20203;-85
2021/01/29 21:00:49;;;;;;;1.27;0.77;;;6.80;99.90;;;;;;6172212;23;20180;-85
2021/01/29 21:03:21;;;;;;;2.45;2.05;;;6.80;99.90;;;;;;6173741;23;20179;-85
2021/01/29 21:05:54;;;;;;;0.55;0.55;;;6.80;99.90;;;;;;6171444;23;20171;-84
2021/01/29 21:08:39;;;;;;;0.68;0.68;;;6.80;99.90;;;;;;6170489;23;20174;-84
2021/01/29 21:11:28;;;;;;;0.63;0.60;;;6.90;99.90;;;;;;6172506;23;20190;-84
2021/01/29 21:14:06;;;;;;;3.90;0.95;;;6.90;99.90;;;;;;6170298;23;20172;-84
2021/01/29 21:16:48;;;;;;;1.00;0.57;;;6.90;99.90;;;;;;6167733;23;20203;-84
2021/01/29 21:19:40;;;;;;;0.82;0.82;;;6.80;99.90;;;;;;6169831;23;20195;-84
2021/01/29 21:22:15;;;;;;;1.20;0.90;;;6.80;99.90;;;;;;6169652;23;20620;-84
2021/01/29 21:24:50;;;;;;;1.27;0.88;;;6.80;99.90;;;;;;6170352;23;20598;-84
2021/01/29 21:27:26;;;;;;;0.60;0.60;;;6.90;99.90;;;;;;6169526;23;20226;-84
2021/01/29 21:30:01;;;;;;;0.30;0.30;;;6.90;99.90;;;;;;6170305;23;20167;-84
2021/01/29 21:32:40;;;;;;;1.20;0.57;;;6.90;99.90;;;;;;6171233;23;20440;-85
2021/01/29 21:35:15;;;;;;;0.40;0.40;;;6.90;99.90;;;;;;6171210;23;20198;-84
2021/01/29 21:38:02;;;;;;;0.70;0.70;;;6.80;99.90;;;;;;6169406;23;20225;-84
2021/01/29 21:43:43;;;;;;;;;;;;;;;;;;;;;
2021/01/29 21:46:26;;;;;;;0.80;0.70;;;6.70;99.90;;;;;;6169698;23;20206;-84
2021/01/29 21:48:58;;;;;;;3.35;0.60;;;6.70;99.90;;;;;;6171306;23;20187;-84
2021/01/29 21:51:27;;;;;;;1.75;0.95;;;6.60;99.90;;;;;;6171443;23;20167;-84
2021/01/29 21:54:34;;;;;;;1.27;0.70;;;6.50;99.90;;;;;;6171851;23;20179;-84
2021/01/29 21:57:17;;;;;;;0.80;0.80;;;6.60;99.90;;;;;;6171337;23;20540;-84
2021/01/29 22:03:44;;;;;;;2.08;1.88;;;6.60;99.90;;;;;;5995342;24;20194;-84
2021/01/29 22:09:34;;;;;;;;;;;;;;;;;;;;;
2021/01/29 22:12:44;;;;;;;0.68;0.68;;;6.70;99.90;;;;;;6171583;23;20193;-84
2021/01/29 22:18:43;;;;;;;0.60;0.60;;;6.80;99.90;;;;;;6162877;23;20264;-84
2021/01/29 22:21:33;;;;;;;0.60;0.60;;;6.70;99.90;;;;;;6171446;23;20522;-84
2021/01/29 22:27:14;;;;;;;1.20;1.10;;;6.70;99.90;;;;;;6168303;23;20229;-84
2021/01/29 22:32:31;;;;;;;1.35;0.90;;;6.70;99.90;;;;;;6169364;23;20179;-84
2021/01/29 22:35:30;;;;;;;2.58;0.90;;;6.70;99.90;;;;;;6172430;23;20169;-84
2021/01/29 22:38:16;;;;;;;;;;;;;;;;;;;;;
2021/01/29 22:41:20;;;;;;;0.40;0.40;;;6.80;99.90;;;;;;6180719;23;20163;-84
2021/01/29 22:44:04;;;;;;;2.35;0.95;;;6.70;99.90;;;;;;6177277;23;20159;-83
2021/01/29 22:47:14;;;;;;;0.50;0.47;;;6.70;99.90;;;;;;6180288;23;20202;-84
2021/01/29 22:49:44;;;;;;;0.70;0.70;;;6.70;99.90;;;;;;6168813;23;20213;-83
2021/01/29 22:52:24;;;;;;;0.60;0.60;;;6.80;99.90;;;;;;6180380;23;20183;-84
2021/01/29 22:55:11;;;;;;;0.70;0.70;;;6.90;99.90;;;;;;6179322;23;20168;-84
2021/01/29 22:57:43;;;;;;;0.40;0.40;;;6.90;99.90;;;;;;6151758;23;20217;-84
2021/01/29 23:00:16;;;;;;;0.50;0.50;;;7.00;99.90;;;;;;6168032;23;20204;-84
2021/01/29 23:02:49;;;;;;;0.65;0.60;;;7.00;99.90;;;;;;6170566;23;20160;-85
2021/01/29 23:05:27;;;;;;;0.55;0.55;;;7.10;99.90;;;;;;6172320;23;20167;-84
2021/01/29 23:11:16;;;;;;;0.60;0.60;;;7.20;99.90;;;;;;6152854;23;20297;-84
2021/01/29 23:13:51;;;;;;;0.60;0.60;;;7.10;99.90;;;;;;6171517;23;20566;-84
2021/01/29 23:16:21;;;;;;;1.30;0.50;;;7.00;99.90;;;;;;6172690;23;20207;-84
2021/01/29 23:18:58;;;;;;;0.93;0.90;;;6.90;99.90;;;;;;6173063;23;20234;-84
2021/01/29 23:21:35;;;;;;;0.55;0.55;;;6.90;99.90;;;;;;6172593;23;20174;-84
2021/01/29 23:24:28;;;;;;;2.15;0.90;;;6.80;99.90;;;;;;6172069;23;20167;-84
2021/01/29 23:27:05;;;;;;;1.10;0.70;;;6.80;99.90;;;;;;6162578;23;20203;-84
2021/01/29 23:29:43;;;;;;;1.10;0.90;;;6.70;99.90;;;;;;6170815;23;20220;-84
2021/01/29 23:32:31;;;;;;;2.13;1.25;;;6.80;99.90;;;;;;6170227;23;20183;-84
2021/01/29 23:35:09;;;;;;;0.77;0.77;;;6.70;99.90;;;;;;6172352;23;20163;-85
2021/01/29 23:37:50;;;;;;;1.65;1.05;;;6.60;99.90;;;;;;6172917;23;20197;-84
2021/01/29 23:40:28;;;;;;;1.05;0.93;;;6.60;99.90;;;;;;6172891;23;20188;-85
2021/01/29 23:43:18;;;;;;;5.20;1.05;;;6.70;99.90;;;;;;6173789;23;20191;-85
2021/01/29 23:45:46;;;;;;;3.67;3.38;;;6.70;99.90;;;;;;6173229;23;20223;-84
2021/01/29 23:48:15;;;;;;;1.35;1.02;;;6.60;99.90;;;;;;6173146;23;20193;-86
2021/01/29 23:50:48;;;;;;;0.75;0.75;;;6.60;99.90;;;;;;6171800;23;20592;-85
2021/01/29 23:53:32;;;;;;;1.13;1.02;;;6.50;99.90;;;;;;6170755;23;20187;-85
2021/01/29 23:56:07;;;;;;;1.13;1.10;;;6.50;99.90;;;;;;6169917;23;20222;-84
